Time;durP1;ratioP1;P1;durP2;ratioP2;P2;SDS_P1;SDS_P2;PMS_P1;PMS_P2;Temp;Humidity;BMP_temperature;BMP_pressure;BME280_temperature;BME280_humidity;BME280_pressure;Samples;Min_cycle;Max_cycle;Signal;HPM_P1;HPM_P2
2023/07/06 00:01:42;;;;;;;3.40;2.50;;;;;;;;;;5050969;28;20594;-78
2023/07/06 00:04:09;;;;;;;6.13;2.70;;;;;;;;;;5043733;28;20192;-75
2023/07/06 00:06:36;;;;;;;3.53;2.60;;;;;;;;;;5049710;28;20215;-79
2023/07/06 00:09:05;;;;;;;3.57;2.20;;;;;;;;;;5049183;28;20186;-75
2023/07/06 00:11:38;;;;;;;5.53;2.40;;;;;;;;;;5050471;28;20247;-75
2023/07/06 00:14:06;;;;;;;3.40;2.40;;;;;;;;;;5050375;28;20206;-76
2023/07/06 00:16:32;;;;;;;3.03;2.20;;;;;;;;;;5038811;28;20209;-77
2023/07/06 00:18:58;;;;;;;3.33;2.40;;;;;;;;;;5023018;28;20182;-77
2023/07/06 00:21:26;;;;;;;5.10;2.23;;;;;;;;;;5050224;28;20202;-76
2023/07/06 00:23:52;;;;;;;3.87;2.63;;;;;;;;;;5050065;28;20620;-77
2023/07/06 00:26:20;;;;;;;3.57;2.33;;;;;;;;;;5050084;28;20219;-77
2023/07/06 00:28:48;;;;;;;2.43;2.10;;;;;;;;;;5042864;28;20225;-77
2023/07/06 00:31:21;;;;;;;2.53;2.13;;;;;;;;;;5049243;28;20185;-77
2023/07/06 00:33:52;;;;;;;3.27;2.30;;;;;;;;;;5053327;28;20765;-76
2023/07/06 00:36:18;;;;;;;3.73;2.50;;;;;;;;;;5050195;28;20779;-76
2023/07/06 00:38:44;;;;;;;3.97;2.43;;;;;;;;;;5037384;28;20839;-76
2023/07/06 00:41:11;;;;;;;3.00;2.20;;;;;;;;;;5050240;28;20182;-78
2023/07/06 00:43:49;;;;;;;6.17;2.50;;;;;;;;;;5025947;28;20247;-77
2023/07/06 00:46:16;;;;;;;3.33;2.40;;;;;;;;;;5048199;28;20236;-77
2023/07/06 00:48:44;;;;;;;2.50;2.23;;;;;;;;;;5032682;28;20209;-77
2023/07/06 00:51:13;;;;;;;3.03;2.20;;;;;;;;;;5053141;28;20243;-77
2023/07/06 00:53:41;;;;;;;2.93;2.00;;;;;;;;;;5034644;28;20215;-75
2023/07/06 00:56:10;;;;;;;4.23;2.43;;;;;;;;;;5053061;28;20590;-75
2023/07/06 00:58:44;;;;;;;2.97;2.67;;;;;;;;;;5032540;28;20181;-75
2023/07/06 01:01:13;;;;;;;2.77;2.40;;;;;;;;;;5049742;28;20666;-75
2023/07/06 01:03:48;;;;;;;3.87;2.60;;;;;;;;;;5033006;28;20191;-75
2023/07/06 01:06:16;;;;;;;4.57;2.30;;;;;;;;;;5049783;28;20977;-75
2023/07/06 01:08:42;;;;;;;6.17;2.77;;;;;;;;;;5032909;28;20541;-75
2023/07/06 01:11:09;;;;;;;3.27;2.40;;;;;;;;;;5048978;28;20263;-75
2023/07/06 01:13:36;;;;;;;4.00;2.77;;;;;;;;;;5048767;28;20301;-76
2023/07/06 01:16:14;;;;;;;5.87;2.50;;;;;;;;;;5050894;28;20217;-76
2023/07/06 01:18:41;;;;;;;4.10;2.30;;;;;;;;;;5049126;28;20184;-75
2023/07/06 01:21:34;;;;;;;5.83;2.60;;;;;;;;;;5047079;28;20228;-75
2023/07/06 01:24:14;;;;;;;3.70;2.60;;;;;;;;;;5017521;28;20259;-76
2023/07/06 01:26:52;;;;;;;3.43;2.60;;;;;;;;;;5032357;28;20213;-76
2023/07/06 01:29:22;;;;;;;4.27;2.77;;;;;;;;;;5047141;28;20567;-76
2023/07/06 01:31:52;;;;;;;3.63;2.63;;;;;;;;;;5051795;28;20209;-76
2023/07/06 01:34:22;;;;;;;5.23;2.20;;;;;;;;;;5052480;28;20301;-76
2023/07/06 01:36:54;;;;;;;3.73;2.50;;;;;;;;;;5034645;28;20221;-76
2023/07/06 01:39:22;;;;;;;3.80;2.43;;;;;;;;;;5045551;28;20260;-77
2023/07/06 01:42:06;;;;;;;3.97;2.60;;;;;;;;;;5049951;28;20224;-75
2023/07/06 01:44:32;;;;;;;4.20;2.70;;;;;;;;;;5047026;28;20270;-76
2023/07/06 01:46:59;;;;;;;4.63;2.70;;;;;;;;;;5036754;28;20328;-76
2023/07/06 01:49:28;;;;;;;4.30;2.60;;;;;;;;;;5049191;28;20186;-75
2023/07/06 01:52:00;;;;;;;4.73;2.60;;;;;;;;;;5036444;28;20209;-76
2023/07/06 01:54:31;;;;;;;4.53;2.90;;;;;;;;;;5045026;28;20267;-76
2023/07/06 01:57:05;;;;;;;4.13;2.73;;;;;;;;;;5032966;28;20198;-75
2023/07/06 01:59:33;;;;;;;3.70;2.77;;;;;;;;;;5032293;28;20641;-76
2023/07/06 02:02:01;;;;;;;5.93;2.97;;;;;;;;;;5033140;28;20243;-76
2023/07/06 02:04:28;;;;;;;3.70;2.33;;;;;;;;;;5048676;28;20182;-75
2023/07/06 02:06:56;;;;;;;6.27;2.80;;;;;;;;;;5048331;28;20297;-75
2023/07/06 02:09:22;;;;;;;3.97;2.50;;;;;;;;;;5048986;28;20176;-76
2023/07/06 02:11:51;;;;;;;3.90;2.90;;;;;;;;;;5030684;28;20170;-75
2023/07/06 02:14:19;;;;;;;5.30;2.60;;;;;;;;;;5031578;28;20214;-75
2023/07/06 02:16:45;;;;;;;3.63;2.70;;;;;;;;;;5049916;28;20772;-75
2023/07/06 02:19:11;;;;;;;3.60;2.40;;;;;;;;;;5011334;28;20236;-76
2023/07/06 02:21:38;;;;;;;4.13;2.70;;;;;;;;;;5030564;28;20178;-76
2023/07/06 02:24:04;;;;;;;6.80;2.80;;;;;;;;;;5042604;28;20189;-77
2023/07/06 02:26:31;;;;;;;3.90;2.90;;;;;;;;;;5029391;28;20569;-76
2023/07/06 02:28:57;;;;;;;4.00;2.47;;;;;;;;;;5048864;28;20186;-76
2023/07/06 02:31:23;;;;;;;3.33;2.80;;;;;;;;;;5045820;28;20194;-76
2023/07/06 02:33:49;;;;;;;4.60;2.80;;;;;;;;;;5038037;28;20216;-75
2023/07/06 02:36:19;;;;;;;4.73;2.83;;;;;;;;;;5048417;28;20194;-76
2023/07/06 02:38:47;;;;;;;6.10;3.03;;;;;;;;;;5045891;28;20175;-76
2023/07/06 02:41:14;;;;;;;3.90;3.00;;;;;;;;;;5047435;28;20188;-76
2023/07/06 02:43:41;;;;;;;3.80;2.80;;;;;;;;;;5035926;28;20181;-75
2023/07/06 02:46:07;;;;;;;3.53;2.87;;;;;;;;;;5048374;28;20285;-78
2023/07/06 02:48:34;;;;;;;3.90;2.93;;;;;;;;;;5048888;28;20232;-76
2023/07/06 02:51:01;;;;;;;3.53;3.00;;;;;;;;;;5047020;28;20182;-75
2023/07/06 02:53:27;;;;;;;4.00;2.97;;;;;;;;;;5029264;28;20339;-76
2023/07/06 02:55:53;;;;;;;2.90;2.60;;;;;;;;;;5036665;28;20212;-77
2023/07/06 02:58:19;;;;;;;4.10;2.80;;;;;;;;;;5043262;28;20209;-76
2023/07/06 03:00:47;;;;;;;4.50;3.13;;;;;;;;;;5040800;28;20184;-76
2023/07/06 03:03:14;;;;;;;6.37;3.53;;;;;;;;;;5050975;28;20268;-76
2023/07/06 03:05:43;;;;;;;4.93;3.30;;;;;;;;;;5049902;28;20174;-76
2023/07/06 03:08:10;;;;;;;4.60;3.40;;;;;;;;;;5050662;28;20182;-75
2023/07/06 03:10:38;;;;;;;5.27;3.40;;;;;;;;;;5036574;28;20182;-76
2023/07/06 03:13:06;;;;;;;4.70;3.13;;;;;;;;;;5037949;28;20237;-76
2023/07/06 03:15:32;;;;;;;4.40;3.33;;;;;;;;;;5049044;28;20237;-76
2023/07/06 03:17:58;;;;;;;5.37;3.57;;;;;;;;;;5050441;28;20186;-76
2023/07/06 03:20:24;;;;;;;4.17;3.00;;;;;;;;;;5050203;28;20170;-76
2023/07/06 03:22:51;;;;;;;5.17;3.43;;;;;;;;;;5050799;28;20186;-76
2023/07/06 03:25:25;;;;;;;4.13;3.20;;;;;;;;;;5032522;28;20265;-75
2023/07/06 03:27:51;;;;;;;4.30;3.43;;;;;;;;;;5041928;28;20193;-75
2023/07/06 03:30:19;;;;;;;3.63;2.97;;;;;;;;;;5048241;28;20208;-75
2023/07/06 03:32:45;;;;;;;5.67;3.50;;;;;;;;;;5034862;28;20192;-76
2023/07/06 03:35:13;;;;;;;4.93;3.27;;;;;;;;;;5046872;28;20206;-75
2023/07/06 03:37:41;;;;;;;5.53;3.57;;;;;;;;;;5042032;28;20201;-76
2023/07/06 03:40:11;;;;;;;5.10;3.00;;;;;;;;;;5046197;28;20187;-76
2023/07/06 03:42:47;;;;;;;3.73;2.90;;;;;;;;;;5044362;28;20212;-76
2023/07/06 03:45:14;;;;;;;3.90;3.03;;;;;;;;;;5048045;28;20573;-76
2023/07/06 03:47:42;;;;;;;4.10;3.30;;;;;;;;;;5032144;28;20209;-76
2023/07/06 03:50:09;;;;;;;4.20;3.37;;;;;;;;;;5049593;28;20251;-75
2023/07/06 03:52:37;;;;;;;6.27;3.30;;;;;;;;;;5049589;28;20190;-76
2023/07/06 03:55:05;;;;;;;5.43;3.00;;;;;;;;;;5050885;28;20213;-76
2023/07/06 03:57:32;;;;;;;4.33;3.20;;;;;;;;;;5034069;28;20308;-76
2023/07/06 03:59:58;;;;;;;6.37;3.30;;;;;;;;;;5047427;28;20186;-76
2023/07/06 04:02:24;;;;;;;4.23;3.20;;;;;;;;;;5050736;28;20553;-76
2023/07/06 04:04:52;;;;;;;3.47;3.13;;;;;;;;;;5043923;28;20190;-75
2023/07/06 04:07:19;;;;;;;4.87;3.37;;;;;;;;;;5050617;28;20205;-75
2023/07/06 04:09:45;;;;;;;4.00;2.93;;;;;;;;;;5048773;28;20190;-75
2023/07/06 04:12:13;;;;;;;4.00;3.17;;;;;;;;;;5044717;28;20256;-77
2023/07/06 04:14:39;;;;;;;4.10;3.00;;;;;;;;;;5046657;28;20201;-77
2023/07/06 04:17:07;;;;;;;8.53;3.60;;;;;;;;;;5050245;28;20201;-76
2023/07/06 04:19:35;;;;;;;4.00;3.23;;;;;;;;;;5049767;28;20277;-75
2023/07/06 04:22:02;;;;;;;4.13;3.37;;;;;;;;;;5038664;28;20627;-77
2023/07/06 04:24:31;;;;;;;3.93;2.83;;;;;;;;;;5050691;28;20178;-75
2023/07/06 04:26:59;;;;;;;3.87;3.10;;;;;;;;;;5031086;28;20687;-75
2023/07/06 04:29:26;;;;;;;3.30;2.73;;;;;;;;;;5051582;28;20178;-75
2023/07/06 04:31:55;;;;;;;3.93;3.00;;;;;;;;;;5053316;28;20186;-76
2023/07/06 04:34:21;;;;;;;4.97;3.20;;;;;;;;;;5050987;28;20689;-75
2023/07/06 04:36:48;;;;;;;3.90;3.27;;;;;;;;;;5053940;28;20685;-76
2023/07/06 04:39:15;;;;;;;6.47;3.00;;;;;;;;;;5016457;28;20238;-75
2023/07/06 04:41:43;;;;;;;4.60;3.20;;;;;;;;;;5047234;28;20178;-75
2023/07/06 04:44:10;;;;;;;6.57;3.10;;;;;;;;;;5050841;28;20678;-76
2023/07/06 04:46:39;;;;;;;4.27;3.03;;;;;;;;;;5044056;28;20639;-76
2023/07/06 04:49:05;;;;;;;4.93;3.03;;;;;;;;;;5052917;28;20185;-75
2023/07/06 04:51:33;;;;;;;4.70;2.97;;;;;;;;;;5053956;28;20185;-75
2023/07/06 04:53:59;;;;;;;5.27;3.30;;;;;;;;;;5051618;28;20288;-76
2023/07/06 04:56:25;;;;;;;4.73;2.97;;;;;;;;;;5034663;28;20240;-76
2023/07/06 04:58:53;;;;;;;5.17;3.17;;;;;;;;;;5043904;28;20178;-76
2023/07/06 05:01:22;;;;;;;4.10;3.23;;;;;;;;;;5047050;28;20185;-78
2023/07/06 05:03:48;;;;;;;7.00;3.10;;;;;;;;;;5053732;28;20192;-76
2023/07/06 05:06:15;;;;;;;5.60;2.90;;;;;;;;;;5051890;28;20251;-76
2023/07/06 05:08:44;;;;;;;4.23;3.13;;;;;;;;;;5046958;28;20277;-76
2023/07/06 05:11:10;;;;;;;4.20;3.07;;;;;;;;;;5047597;28;20260;-75
2023/07/06 05:13:37;;;;;;;5.37;3.17;;;;;;;;;;5055875;28;20217;-76
2023/07/06 05:16:03;;;;;;;4.57;3.00;;;;;;;;;;5051780;28;20201;-75
2023/07/06 05:18:29;;;;;;;4.73;2.90;;;;;;;;;;5035054;28;20179;-75
2023/07/06 05:20:57;;;;;;;5.13;3.10;;;;;;;;;;5035058;28;20201;-76
2023/07/06 05:23:28;;;;;;;5.03;3.27;;;;;;;;;;5052709;28;20186;-72
2023/07/06 05:25:55;;;;;;;4.57;3.23;;;;;;;;;;5029135;28;20239;-74
2023/07/06 05:28:22;;;;;;;5.13;3.07;;;;;;;;;;5044939;28;20184;-72
2023/07/06 05:30:48;;;;;;;4.07;3.17;;;;;;;;;;5051814;28;20182;-73
2023/07/06 05:33:14;;;;;;;3.63;2.80;;;;;;;;;;5052561;28;20592;-74
2023/07/06 05:35:42;;;;;;;5.50;2.90;;;;;;;;;;5042973;28;20185;-74
2023/07/06 05:38:10;;;;;;;4.83;3.10;;;;;;;;;;5046154;28;20174;-71
2023/07/06 05:40:37;;;;;;;5.03;2.90;;;;;;;;;;5051189;28;20273;-73
2023/07/06 05:43:03;;;;;;;4.27;3.00;;;;;;;;;;5050792;28;20178;-72
2023/07/06 05:45:29;;;;;;;3.43;2.90;;;;;;;;;;5049223;28;20182;-71
2023/07/06 05:47:55;;;;;;;6.10;3.03;;;;;;;;;;5049726;28;20222;-73
2023/07/06 05:50:21;;;;;;;4.67;3.07;;;;;;;;;;5046023;28;20193;-72
2023/07/06 05:52:47;;;;;;;4.60;2.70;;;;;;;;;;5048496;28;20193;-75
2023/07/06 05:55:13;;;;;;;3.63;2.50;;;;;;;;;;5050518;28;20340;-70
2023/07/06 05:57:40;;;;;;;4.57;2.70;;;;;;;;;;5044527;28;20199;-74
2023/07/06 06:00:09;;;;;;;3.17;2.70;;;;;;;;;;5045386;28;20182;-72
2023/07/06 06:02:36;;;;;;;4.77;2.77;;;;;;;;;;5050028;28;20190;-72
2023/07/06 06:05:03;;;;;;;5.10;2.47;;;;;;;;;;5049084;28;20714;-72
2023/07/06 06:07:31;;;;;;;3.27;2.80;;;;;;;;;;5048219;28;20724;-73
2023/07/06 06:09:57;;;;;;;3.43;2.67;;;;;;;;;;5051717;28;20190;-75
2023/07/06 06:12:24;;;;;;;4.20;2.80;;;;;;;;;;5043690;28;20182;-77
2023/07/06 06:14:52;;;;;;;4.93;3.33;;;;;;;;;;5052603;28;20229;-77
2023/07/06 06:17:19;;;;;;;5.70;3.13;;;;;;;;;;5046767;28;20194;-77
2023/07/06 06:19:46;;;;;;;4.83;3.20;;;;;;;;;;5046846;28;20178;-77
2023/07/06 06:22:13;;;;;;;6.43;3.13;;;;;;;;;;5050199;28;20182;-78
2023/07/06 06:24:39;;;;;;;4.87;2.93;;;;;;;;;;5046347;28;20186;-77
2023/07/06 06:27:06;;;;;;;5.03;2.90;;;;;;;;;;5048053;28;20224;-77
2023/07/06 06:29:34;;;;;;;4.73;3.10;;;;;;;;;;5053357;28;20186;-78
2023/07/06 06:32:03;;;;;;;6.03;3.10;;;;;;;;;;5049735;28;20184;-77
2023/07/06 06:34:29;;;;;;;3.73;2.93;;;;;;;;;;5051153;28;20235;-77
2023/07/06 06:36:55;;;;;;;4.17;3.03;;;;;;;;;;5044418;28;20201;-77
2023/07/06 06:39:22;;;;;;;5.40;3.00;;;;;;;;;;5047354;28;20186;-77
2023/07/06 06:41:48;;;;;;;4.43;3.00;;;;;;;;;;5053065;28;20450;-77
2023/07/06 06:44:17;;;;;;;3.23;2.77;;;;;;;;;;5036216;28;20186;-77
2023/07/06 06:46:45;;;;;;;4.30;2.80;;;;;;;;;;5051915;28;20214;-77
2023/07/06 06:49:12;;;;;;;5.33;3.10;;;;;;;;;;5047833;28;20221;-77
2023/07/06 06:51:38;;;;;;;4.10;2.90;;;;;;;;;;5024390;28;21851;-77
2023/07/06 06:54:05;;;;;;;4.17;2.47;;;;;;;;;;5051778;28;20210;-75
2023/07/06 06:56:31;;;;;;;7.43;2.73;;;;;;;;;;5051416;28;20280;-76
2023/07/06 06:58:57;;;;;;;3.73;2.30;;;;;;;;;;5047924;28;20181;-75
2023/07/06 07:01:25;;;;;;;5.20;2.70;;;;;;;;;;5045570;28;20191;-75
2023/07/06 07:03:51;;;;;;;5.43;2.63;;;;;;;;;;5047012;28;20185;-77
2023/07/06 07:06:17;;;;;;;4.10;2.30;;;;;;;;;;5051870;28;20572;-76
2023/07/06 07:08:44;;;;;;;3.37;2.10;;;;;;;;;;5048291;28;20193;-76
2023/07/06 07:11:11;;;;;;;5.43;2.63;;;;;;;;;;5051460;28;20190;-76
2023/07/06 07:13:38;;;;;;;5.33;2.67;;;;;;;;;;5048438;28;20300;-77
2023/07/06 07:16:05;;;;;;;6.77;2.30;;;;;;;;;;5045551;28;20241;-75
2023/07/06 07:18:31;;;;;;;5.07;2.63;;;;;;;;;;5057243;28;20177;-75
2023/07/06 07:20:57;;;;;;;4.37;2.33;;;;;;;;;;5061073;28;20260;-75
2023/07/06 07:23:24;;;;;;;2.53;2.17;;;;;;;;;;5038375;28;20208;-75
2023/07/06 07:25:51;;;;;;;4.33;2.50;;;;;;;;;;5050906;28;20295;-75
2023/07/06 07:28:17;;;;;;;7.17;2.70;;;;;;;;;;5047173;28;20243;-76
2023/07/06 07:30:56;;;;;;;5.90;2.20;;;;;;;;;;5050922;28;20939;-75
2023/07/06 07:33:23;;;;;;;4.27;2.37;;;;;;;;;;5050529;28;20200;-75
2023/07/06 07:35:51;;;;;;;3.43;2.10;;;;;;;;;;5049445;28;20190;-74
2023/07/06 07:38:19;;;;;;;4.60;2.50;;;;;;;;;;5042888;28;20177;-75
2023/07/06 07:40:56;;;;;;;4.67;2.30;;;;;;;;;;5051584;28;20189;-75
2023/07/06 07:43:26;;;;;;;2.70;2.10;;;;;;;;;;5045446;28;20181;-76
2023/07/06 07:45:54;;;;;;;5.03;2.13;;;;;;;;;;5032876;28;20278;-75
2023/07/06 07:48:22;;;;;;;5.93;2.67;;;;;;;;;;5046790;28;20185;-75
2023/07/06 07:50:49;;;;;;;3.43;2.30;;;;;;;;;;5050208;28;20221;-75
2023/07/06 07:53:15;;;;;;;4.37;2.23;;;;;;;;;;5043501;28;20178;-76
2023/07/06 07:55:41;;;;;;;3.50;2.30;;;;;;;;;;5050159;28;20689;-75
2023/07/06 07:58:08;;;;;;;5.53;2.20;;;;;;;;;;5041759;28;20200;-76
2023/07/06 08:00:34;;;;;;;3.90;2.07;;;;;;;;;;5054966;28;20319;-76
2023/07/06 08:03:03;;;;;;;2.67;2.20;;;;;;;;;;5048528;28;20576;-76
2023/07/06 08:05:30;;;;;;;2.47;1.97;;;;;;;;;;5051527;28;20185;-75
2023/07/06 08:07:56;;;;;;;4.77;1.90;;;;;;;;;;5036330;28;20274;-75
2023/07/06 08:10:23;;;;;;;3.73;2.33;;;;;;;;;;5054385;28;20208;-75
2023/07/06 08:12:49;;;;;;;5.33;2.37;;;;;;;;;;5053966;28;20182;-75
2023/07/06 08:15:16;;;;;;;4.53;2.40;;;;;;;;;;5054952;28;20219;-75
2023/07/06 08:17:42;;;;;;;4.00;2.30;;;;;;;;;;5041925;28;20206;-76
2023/07/06 08:20:12;;;;;;;5.17;2.47;;;;;;;;;;5055106;28;20178;-75
2023/07/06 08:22:40;;;;;;;3.60;2.30;;;;;;;;;;5052317;28;20192;-76
2023/07/06 08:25:07;;;;;;;3.60;2.20;;;;;;;;;;5037066;28;20344;-76
2023/07/06 08:27:33;;;;;;;4.87;2.93;;;;;;;;;;5048801;28;20362;-75
2023/07/06 08:29:59;;;;;;;2.83;2.00;;;;;;;;;;5035287;28;20216;-75
2023/07/06 08:32:27;;;;;;;3.63;2.23;;;;;;;;;;5053974;28;20190;-75
2023/07/06 08:34:53;;;;;;;4.03;2.30;;;;;;;;;;5052508;28;20213;-75
2023/07/06 08:37:20;;;;;;;4.67;2.50;;;;;;;;;;5046649;28;20276;-75
2023/07/06 08:39:46;;;;;;;4.33;2.37;;;;;;;;;;5054145;28;20185;-76
2023/07/06 08:42:15;;;;;;;3.80;2.20;;;;;;;;;;5054427;28;20257;-75
2023/07/06 08:44:44;;;;;;;2.87;2.40;;;;;;;;;;5052517;28;20205;-75
2023/07/06 08:47:13;;;;;;;4.57;2.60;;;;;;;;;;5047790;28;20225;-76
2023/07/06 08:49:40;;;;;;;3.70;2.10;;;;;;;;;;5053844;28;20181;-75
2023/07/06 08:52:08;;;;;;;2.83;2.10;;;;;;;;;;5054262;28;20277;-75
2023/07/06 08:54:36;;;;;;;6.13;2.30;;;;;;;;;;5020009;28;20217;-75
2023/07/06 08:57:02;;;;;;;4.03;2.40;;;;;;;;;;5039066;28;20205;-75
2023/07/06 08:59:32;;;;;;;2.80;2.27;;;;;;;;;;5052936;28;20214;-75
2023/07/06 09:01:58;;;;;;;2.60;1.90;;;;;;;;;;5051200;28;20265;-78
2023/07/06 09:04:24;;;;;;;2.67;2.03;;;;;;;;;;5053713;28;20255;-77
2023/07/06 09:06:54;;;;;;;3.30;2.20;;;;;;;;;;5047432;28;20213;-77
2023/07/06 09:09:21;;;;;;;2.60;2.03;;;;;;;;;;5047300;28;20205;-77
2023/07/06 09:11:48;;;;;;;4.03;2.20;;;;;;;;;;5043575;28;20650;-78
2023/07/06 09:14:16;;;;;;;3.20;1.80;;;;;;;;;;5035975;28;20218;-77
2023/07/06 09:16:55;;;;;;;3.70;2.30;;;;;;;;;;5043270;28;20202;-77
2023/07/06 09:19:21;;;;;;;2.47;1.90;;;;;;;;;;5054158;28;20193;-78
2023/07/06 09:21:51;;;;;;;3.00;2.10;;;;;;;;;;5055540;28;20537;-79
2023/07/06 09:24:17;;;;;;;4.27;2.07;;;;;;;;;;5054978;28;20186;-78
2023/07/06 09:26:44;;;;;;;2.97;2.47;;;;;;;;;;5054750;28;20213;-78
2023/07/06 09:29:12;;;;;;;3.97;2.20;;;;;;;;;;5037148;28;20547;-77
2023/07/06 09:31:38;;;;;;;4.13;2.20;;;;;;;;;;5047613;28;20548;-77
2023/07/06 09:34:10;;;;;;;2.30;1.83;;;;;;;;;;5049970;28;20237;-77
2023/07/06 09:36:36;;;;;;;2.47;1.80;;;;;;;;;;5038492;28;20697;-77
2023/07/06 09:39:04;;;;;;;3.33;1.93;;;;;;;;;;5055707;28;20585;-77
2023/07/06 09:41:32;;;;;;;3.20;2.13;;;;;;;;;;5056072;28;20178;-77
2023/07/06 09:44:00;;;;;;;3.77;1.90;;;;;;;;;;5053497;28;20213;-77
2023/07/06 09:46:35;;;;;;;2.73;2.10;;;;;;;;;;5034048;28;20211;-77
2023/07/06 09:49:02;;;;;;;3.17;2.10;;;;;;;;;;5052881;28;20641;-77
2023/07/06 09:51:32;;;;;;;2.00;1.80;;;;;;;;;;5053425;28;20268;-76
2023/07/06 09:54:04;;;;;;;1.97;1.77;;;;;;;;;;5054900;28;20205;-78
2023/07/06 09:56:30;;;;;;;2.93;1.90;;;;;;;;;;5034784;28;20280;-76
2023/07/06 09:58:57;;;;;;;3.93;2.10;;;;;;;;;;5049340;28;20190;-76
2023/07/06 10:01:31;;;;;;;3.07;2.30;;;;;;;;;;5054194;28;20716;-77
2023/07/06 10:04:16;;;;;;;2.73;2.03;;;;;;;;;;5054392;28;20247;-77
2023/07/06 10:07:01;;;;;;;4.20;2.30;;;;;;;;;;5054093;28;20560;-77
2023/07/06 10:09:34;;;;;;;3.37;2.27;;;;;;;;;;5041189;28;20185;-77
2023/07/06 10:12:06;;;;;;;5.50;2.53;;;;;;;;;;5026157;28;20602;-77
2023/07/06 10:14:43;;;;;;;3.47;2.37;;;;;;;;;;5052503;28;20202;-76
2023/07/06 10:17:15;;;;;;;3.47;2.47;;;;;;;;;;5036190;28;20194;-76
2023/07/06 10:20:00;;;;;;;3.27;2.20;;;;;;;;;;5052406;28;20184;-74
2023/07/06 10:22:33;;;;;;;3.20;2.33;;;;;;;;;;5034951;28;20183;-78
2023/07/06 10:25:09;;;;;;;3.00;2.20;;;;;;;;;;5032160;28;20289;-79
2023/07/06 10:27:38;;;;;;;4.03;2.30;;;;;;;;;;5044280;28;20209;-76
2023/07/06 10:30:08;;;;;;;3.70;2.13;;;;;;;;;;5048954;28;20197;-76
2023/07/06 10:32:39;;;;;;;4.30;2.17;;;;;;;;;;5049431;28;20185;-76
2023/07/06 10:35:12;;;;;;;4.03;2.20;;;;;;;;;;5055268;28;20552;-76
2023/07/06 10:37:39;;;;;;;2.47;2.10;;;;;;;;;;5047957;28;20563;-75
2023/07/06 10:40:14;;;;;;;4.57;2.40;;;;;;;;;;5049179;28;20174;-74
2023/07/06 10:42:51;;;;;;;4.20;2.13;;;;;;;;;;5034196;28;20897;-74
2023/07/06 10:45:44;;;;;;;3.40;2.17;;;;;;;;;;5051281;28;20251;-76
2023/07/06 10:48:14;;;;;;;2.93;2.27;;;;;;;;;;5036500;28;20218;-73
2023/07/06 10:50:44;;;;;;;5.90;2.30;;;;;;;;;;5049574;28;20213;-75
2023/07/06 10:53:43;;;;;;;4.37;2.20;;;;;;;;;;5048602;28;20229;-75
2023/07/06 10:56:12;;;;;;;2.63;2.23;;;;;;;;;;5016950;28;20287;-75
2023/07/06 10:58:57;;;;;;;3.47;2.40;;;;;;;;;;5051106;28;20178;-76
2023/07/06 11:01:29;;;;;;;3.40;2.30;;;;;;;;;;5050512;28;20213;-75
2023/07/06 11:03:55;;;;;;;3.53;2.33;;;;;;;;;;5049271;28;20211;-75
2023/07/06 11:06:44;;;;;;;2.57;2.20;;;;;;;;;;5047106;28;20208;-75
2023/07/06 11:09:11;;;;;;;2.53;2.10;;;;;;;;;;5049144;28;20183;-75
2023/07/06 11:11:42;;;;;;;2.70;2.40;;;;;;;;;;5050067;28;20261;-75
2023/07/06 11:14:36;;;;;;;4.70;2.23;;;;;;;;;;5039762;28;20208;-75
2023/07/06 11:17:23;;;;;;;2.73;2.33;;;;;;;;;;5046574;28;20738;-75
2023/07/06 11:19:54;;;;;;;3.43;2.50;;;;;;;;;;5049460;28;20180;-75
2023/07/06 11:22:22;;;;;;;2.63;2.27;;;;;;;;;;5050897;28;20205;-75
2023/07/06 11:24:50;;;;;;;3.17;2.40;;;;;;;;;;5048025;28;20273;-75
2023/07/06 11:27:22;;;;;;;5.03;2.23;;;;;;;;;;5034127;28;20753;-74
2023/07/06 11:29:48;;;;;;;4.03;2.30;;;;;;;;;;5045720;28;20390;-75
2023/07/06 11:32:25;;;;;;;2.77;2.47;;;;;;;;;;5028257;28;20263;-76
2023/07/06 11:35:30;;;;;;;2.40;1.90;;;;;;;;;;5050050;28;20205;-77
2023/07/06 11:38:12;;;;;;;2.57;1.90;;;;;;;;;;5050908;28;20169;-75
2023/07/06 11:40:43;;;;;;;2.53;1.90;;;;;;;;;;5050370;28;20213;-75
2023/07/06 11:43:31;;;;;;;2.20;2.00;;;;;;;;;;5051532;28;20177;-75
2023/07/06 11:46:08;;;;;;;3.53;2.30;;;;;;;;;;5048447;28;20276;-75
2023/07/06 11:48:45;;;;;;;3.37;2.40;;;;;;;;;;5048755;28;20189;-75
2023/07/06 11:51:13;;;;;;;3.17;2.23;;;;;;;;;;5046609;28;20558;-75
2023/07/06 11:53:54;;;;;;;3.47;2.40;;;;;;;;;;5046219;28;20783;-75
2023/07/06 11:56:35;;;;;;;3.17;2.30;;;;;;;;;;5040162;28;20247;-76
2023/07/06 11:59:07;;;;;;;3.57;2.50;;;;;;;;;;5050729;28;20674;-76
2023/07/06 12:01:42;;;;;;;2.67;2.20;;;;;;;;;;5051687;28;20178;-75
2023/07/06 12:04:20;;;;;;;3.33;2.47;;;;;;;;;;5051656;28;20186;-75
2023/07/06 12:06:48;;;;;;;4.00;1.90;;;;;;;;;;5050159;28;20202;-75
2023/07/06 12:09:22;;;;;;;4.50;2.50;;;;;;;;;;5047080;28;20186;-75
2023/07/06 12:11:55;;;;;;;3.47;2.30;;;;;;;;;;5028969;28;20280;-75
2023/07/06 12:14:21;;;;;;;2.53;2.33;;;;;;;;;;5047364;28;20210;-76
2023/07/06 12:16:49;;;;;;;2.93;2.23;;;;;;;;;;5017131;28;20217;-75
2023/07/06 12:19:17;;;;;;;2.77;2.20;;;;;;;;;;5048537;28;20183;-75
2023/07/06 12:21:45;;;;;;;3.00;2.47;;;;;;;;;;5054415;28;20182;-75
2023/07/06 12:24:16;;;;;;;3.53;2.60;;;;;;;;;;5047339;28;20180;-76
2023/07/06 12:26:43;;;;;;;2.97;2.20;;;;;;;;;;5049755;28;20332;-76
2023/07/06 12:29:09;;;;;;;3.17;2.20;;;;;;;;;;5052067;28;20184;-76
2023/07/06 12:31:37;;;;;;;2.40;2.20;;;;;;;;;;5049378;28;20205;-76
2023/07/06 12:34:04;;;;;;;3.50;2.33;;;;;;;;;;5047327;28;20211;-76
2023/07/06 12:36:33;;;;;;;3.23;2.30;;;;;;;;;;5058141;28;20263;-76
2023/07/06 12:39:00;;;;;;;3.80;2.50;;;;;;;;;;5050709;28;20282;-76
2023/07/06 12:41:26;;;;;;;3.60;2.20;;;;;;;;;;5049465;28;20184;-75
2023/07/06 12:43:53;;;;;;;3.80;2.70;;;;;;;;;;5030976;28;20189;-76
2023/07/06 12:46:23;;;;;;;2.60;2.10;;;;;;;;;;5050799;28;20216;-77
2023/07/06 12:48:51;;;;;;;3.17;2.10;;;;;;;;;;5053941;28;20187;-75
2023/07/06 12:51:21;;;;;;;3.93;2.30;;;;;;;;;;5053939;28;20581;-75
2023/07/06 12:53:49;;;;;;;3.07;2.30;;;;;;;;;;5053971;28;20592;-75
2023/07/06 12:56:17;;;;;;;2.20;2.00;;;;;;;;;;5051836;28;20239;-75
2023/07/06 12:58:47;;;;;;;2.33;2.10;;;;;;;;;;5058376;28;20189;-75
2023/07/06 13:01:18;;;;;;;2.37;2.10;;;;;;;;;;5054510;28;20178;-75
2023/07/06 13:03:58;;;;;;;2.20;2.00;;;;;;;;;;5038092;28;20249;-75
2023/07/06 13:06:25;;;;;;;3.67;2.20;;;;;;;;;;5027703;28;20207;-74
2023/07/06 13:08:59;;;;;;;4.50;2.27;;;;;;;;;;5054560;28;20697;-75
2023/07/06 13:11:26;;;;;;;3.23;2.30;;;;;;;;;;5050419;28;20182;-76
2023/07/06 13:13:56;;;;;;;2.87;2.17;;;;;;;;;;5053795;28;20236;-75
2023/07/06 13:16:22;;;;;;;4.07;2.40;;;;;;;;;;5048750;28;20204;-75
2023/07/06 13:18:51;;;;;;;2.40;2.20;;;;;;;;;;5050917;28;20235;-76
2023/07/06 13:21:18;;;;;;;2.90;2.40;;;;;;;;;;5050523;28;20185;-76
2023/07/06 13:23:46;;;;;;;3.10;2.20;;;;;;;;;;5040650;28;20251;-76
2023/07/06 13:26:12;;;;;;;2.77;2.27;;;;;;;;;;5050449;28;20956;-75
2023/07/06 13:28:39;;;;;;;3.27;2.47;;;;;;;;;;5053156;28;20181;-75
2023/07/06 13:31:07;;;;;;;3.80;2.20;;;;;;;;;;5051723;28;20185;-75
2023/07/06 13:33:39;;;;;;;2.40;2.20;;;;;;;;;;5052159;28;20551;-75
2023/07/06 13:36:08;;;;;;;2.87;2.43;;;;;;;;;;5053485;28;20710;-76
2023/07/06 13:38:35;;;;;;;4.13;2.33;;;;;;;;;;5045811;28;20188;-75
2023/07/06 13:41:02;;;;;;;3.03;2.27;;;;;;;;;;5053487;28;20188;-76
2023/07/06 13:43:28;;;;;;;3.93;2.10;;;;;;;;;;5050635;28;20183;-75
2023/07/06 13:45:56;;;;;;;3.43;2.40;;;;;;;;;;5051080;28;20568;-75
2023/07/06 13:48:23;;;;;;;2.93;2.00;;;;;;;;;;5041237;28;20249;-75
2023/07/06 13:50:49;;;;;;;4.30;2.30;;;;;;;;;;5032051;28;20202;-76
2023/07/06 13:53:17;;;;;;;2.43;2.23;;;;;;;;;;5050223;28;20188;-75
2023/07/06 13:55:48;;;;;;;2.83;2.37;;;;;;;;;;5052491;28;20271;-75
2023/07/06 13:58:14;;;;;;;3.23;2.20;;;;;;;;;;5049286;28;20186;-76
2023/07/06 14:00:42;;;;;;;3.20;2.10;;;;;;;;;;5050941;28;20195;-76
2023/07/06 14:03:12;;;;;;;3.57;2.40;;;;;;;;;;5051587;28;20688;-76
2023/07/06 14:05:38;;;;;;;4.20;2.30;;;;;;;;;;5046093;28;20193;-76
2023/07/06 14:08:04;;;;;;;3.67;2.43;;;;;;;;;;5052691;28;20223;-75
2023/07/06 14:10:32;;;;;;;2.40;2.20;;;;;;;;;;5046331;28;20672;-76
2023/07/06 14:12:58;;;;;;;2.37;2.17;;;;;;;;;;5052783;28;20193;-75
2023/07/06 14:15:24;;;;;;;2.43;2.10;;;;;;;;;;5049265;28;20243;-76
2023/07/06 14:17:51;;;;;;;3.13;2.43;;;;;;;;;;5050058;28;20250;-76
2023/07/06 14:20:18;;;;;;;3.83;2.50;;;;;;;;;;5049327;28;20179;-76
2023/07/06 14:22:44;;;;;;;4.27;2.43;;;;;;;;;;5052730;28;20190;-76
2023/07/06 14:25:24;;;;;;;2.57;2.17;;;;;;;;;;5044499;28;20184;-76
2023/07/06 14:27:50;;;;;;;2.67;2.23;;;;;;;;;;5051564;28;20681;-76
2023/07/06 14:30:21;;;;;;;3.00;2.23;;;;;;;;;;5049795;28;20178;-76
2023/07/06 14:32:48;;;;;;;4.07;2.03;;;;;;;;;;5045382;28;20270;-76
2023/07/06 14:35:15;;;;;;;2.30;2.00;;;;;;;;;;5045408;28;20207;-76
2023/07/06 14:37:42;;;;;;;2.63;2.03;;;;;;;;;;5050171;28;20693;-77
2023/07/06 14:40:09;;;;;;;2.40;2.20;;;;;;;;;;5052337;28;20190;-77
2023/07/06 14:42:35;;;;;;;2.37;2.10;;;;;;;;;;5055037;28;20276;-76
2023/07/06 14:45:01;;;;;;;7.10;2.40;;;;;;;;;;5051058;28;20200;-76
2023/07/06 14:47:28;;;;;;;2.37;2.00;;;;;;;;;;5032073;28;20216;-77
2023/07/06 14:49:54;;;;;;;2.90;2.40;;;;;;;;;;5047699;28;20196;-77
2023/07/06 14:52:21;;;;;;;2.40;2.00;;;;;;;;;;5052057;28;20208;-77
2023/07/06 14:54:47;;;;;;;3.73;2.03;;;;;;;;;;5035954;28;20210;-76